Архив погоды в Ефимовской

Метеограмма Ефимовская
Понедельник, 24 Сентября
Время местн. Темп Ветер Видим Явления Облачность нижн/средн/верх Атм. давл. Влжн Точка росы ВНГО R Сост. почвы Tg s
Напр Скр Прв ур.ст ур.м изм
06:00 - +7° Ю 2 - - - - 737 753 +0.1 93% +5.9° - - - - -
03:00 - +7.5° Ю,Ю-З 1 - - - - 737 753 +0.4 93% +6.4° - - - - -
00:00 - +4.5° Ю 1 - - - - 737 753 +0.1 101% +4.6° - - - - -
Воскресенье, 23 Сентября
Время местн. Темп Ветер Видим Явления Облачность нижн/средн/верх Атм. давл. Влжн Точка росы ВНГО R Сост. почвы Tg s
Напр Скр Прв ур.ст ур.м изм
21:00 +5.4° Ю 2 - 50 км - переменная облачность 737 753 -0.2 93% +4.3° более 2.5 км 0 - - -
18:00 - +10.8° Ю,Ю-З 1 - - - - 737 752 -0.1 66% +4.7° - - - - -
15:00 - +12.7° Ю-З 2 - - - - 737 752 +0.3 59% +4.9° - - - - -
12:00 - +12.5° Ю-З 3 - - - - 737 752 -0.4 73% +7.7° - - - - -
09:00 +9.9° Ю-З 1 - 20 км ливневый дождь облачно 737 753 -0.5 97% +9.4° 600 м 2 Влажная (без луж) - -
06:00 - +9.7° Ю,Ю-З 1 - - - - 738 753 -1 99% +9.6° - - - - -
03:00 - +9.9° Ю,Ю-З 1 - - - - 738 754 -0.8 98% +9.6° - - - - -
00:00 - +9.3° Ю 1 - - - - 739 755 -0.4 96% +8.7° - - - - -
Суббота, 22 Сентября
Время местн. Темп Ветер Видим Явления Облачность нижн/средн/верх Атм. давл. Влжн Точка росы ВНГО R Сост. почвы Tg s
Напр Скр Прв ур.ст ур.м изм
21:00 +11.5° З,С-З 1 - 50 км - облачно с прояснениями 740 755 +0.2 77% +7.6° 1 км 0 - - -
18:00 - +13.6° З,С-З 3 - - - - 739 755 +1.4 77% +9.6° - - - - -
15:00 - +23.7° Ю 4 11 - - - 738 753 -1.4 48% +11.9° - - - - -
12:00 - +22.2° Ю 4 - - - - 739 754 -1.8 57% +13.2° - - - - -
06:00 - +11.8° Ю,Ю-В 2 - - - - 743 758 -1.3 100% +11.8° - - - - -
03:00 - +10.7° Ю-В 1 - - - - 744 760 -1 100% +10.7° - - - - -
00:00 - +10.1° Ю,Ю-В 1 - - - - 745 761 -0.6 100% +10.1° - - - - -
Пятница, 21 Сентября
Время местн. Темп Ветер Видим Явления Облачность нижн/средн/верх Атм. давл. Влжн Точка росы ВНГО R Сост. почвы Tg s
Напр Скр Прв ур.ст ур.м изм
21:00 +12° штиль 0 - 50 км - ясно 746 761 -0.2 99% +11.8° более 2.5 км 0 - - -
18:00 - +19.3° З,Ю-З 1 - - - - 746 761 +0.2 67% +13.1° - - - - -
15:00 - +22.1° З 2 - - - - 746 761 +0.1 56% +13° - - - - -
12:00 - +19.6° З 2 - - - - 746 761 +0.5 68% +13.6° - - - - -
09:00 +16° З 1 - 20 км - переменная облачность 745 760 +0.2 86% +13.7° более 2.5 км 0 Влажная (без луж) - -
06:00 - +10° Ю 1 - - - - 745 761 +0.2 100% +10° - - - - -
03:00 - +11.5° Ю 1 - - - - 745 760 +0.4 99% +11.3° - - - - -
00:00 - +14° Ю 1 - - - - 744 760 +0.2 90% +12.4° - - - - -